createdAt,value
2018-07-03T00:02:18.534Z,43.41
2018-07-03T00:04:47.064Z,43.05
2018-07-03T00:07:15.580Z,42.29
2018-07-03T00:09:44.076Z,42.21
2018-07-03T00:12:12.557Z,42.23
2018-07-03T00:14:42.317Z,42.18
2018-07-03T00:17:15.890Z,41.83
2018-07-03T00:19:46.617Z,42.12
2018-07-03T00:22:15.045Z,41.94
2018-07-03T00:24:44.177Z,42.42
2018-07-03T00:27:12.692Z,42.63
2018-07-03T00:29:41.288Z,42.83
2018-07-03T00:32:09.729Z,42.39
2018-07-03T00:34:38.249Z,42.09
2018-07-03T00:37:06.795Z,42.68
2018-07-03T00:39:35.302Z,42.57
2018-07-03T00:42:03.901Z,42.93
2018-07-03T00:44:32.380Z,43.63
2018-07-03T00:47:00.930Z,43.37
2018-07-03T00:49:29.356Z,43.95
2018-07-03T00:51:57.888Z,44.89
2018-07-03T00:54:26.363Z,44.91
2018-07-03T00:56:54.890Z,44.94
2018-07-03T00:59:23.514Z,45.32
2018-07-03T01:01:52.029Z,46.14
2018-07-03T01:04:20.500Z,46.30
2018-07-03T01:06:48.976Z,46.51
2018-07-03T01:09:17.376Z,47.14
2018-07-03T01:11:55.401Z,47.72
2018-07-03T01:14:23.884Z,47.33
2018-07-03T01:16:52.323Z,47.85
2018-07-03T01:19:20.796Z,48.27
2018-07-03T01:21:52.344Z,48.74
2018-07-03T01:24:20.788Z,49.09
2018-07-03T01:26:49.322Z,49.19
2018-07-03T01:29:17.911Z,50.00
2018-07-03T01:31:46.403Z,50.49
2018-07-03T01:34:14.969Z,50.81
2018-07-03T01:36:43.463Z,50.72
2018-07-03T01:39:11.945Z,51.48
2018-07-03T01:41:40.396Z,51.86
2018-07-03T01:44:08.820Z,51.75
2018-07-03T01:46:37.276Z,51.98
2018-07-03T01:49:05.784Z,52.78
2018-07-03T01:51:34.361Z,53.03
2018-07-03T01:54:02.759Z,53.33
2018-07-03T01:56:31.194Z,53.27
2018-07-03T01:58:59.688Z,53.67
2018-07-03T02:01:28.186Z,53.92
2018-07-03T02:03:56.710Z,54.05
2018-07-03T02:06:25.274Z,54.40
2018-07-03T02:08:53.718Z,54.23
2018-07-03T02:11:22.297Z,54.83
2018-07-03T02:13:50.801Z,55.01
2018-07-03T02:16:19.877Z,55.13
2018-07-03T02:18:48.324Z,55.29
2018-07-03T02:21:16.848Z,55.31
2018-07-03T02:23:45.369Z,55.50
2018-07-03T02:26:13.812Z,55.61
2018-07-03T02:28:42.906Z,55.62
2018-07-03T02:31:11.485Z,55.48
2018-07-03T02:33:40.054Z,55.98
2018-07-03T02:36:08.564Z,55.95
2018-07-03T02:38:37.013Z,56.34
2018-07-03T02:41:05.969Z,56.01
2018-07-03T02:43:34.516Z,56.55
2018-07-03T02:46:02.942Z,56.13
2018-07-03T02:48:31.472Z,56.83
2018-07-03T02:50:59.965Z,56.42
2018-07-03T02:53:28.431Z,56.58
2018-07-03T02:55:56.958Z,57.09
2018-07-03T02:58:25.481Z,56.92
2018-07-03T03:00:53.927Z,57.44
2018-07-03T03:03:22.477Z,57.49
2018-07-03T03:05:51.558Z,57.39
2018-07-03T03:08:20.086Z,57.85
2018-07-03T03:10:48.530Z,57.76
2018-07-03T03:13:17.056Z,58.00
2018-07-03T03:15:45.596Z,58.51
2018-07-03T03:18:14.125Z,58.58
2018-07-03T03:20:42.653Z,58.61
2018-07-03T03:23:11.121Z,58.50
2018-07-03T03:29:09.379Z,58.77
2018-07-03T03:31:37.834Z,58.87
2018-07-03T03:34:06.625Z,58.70
2018-07-03T03:36:35.029Z,59.24
2018-07-03T03:39:03.884Z,59.37
2018-07-03T03:41:32.366Z,59.38
2018-07-03T03:44:00.926Z,59.70
2018-07-03T03:46:29.926Z,59.41
2018-07-03T03:48:58.467Z,59.28
2018-07-03T03:51:27.013Z,59.79
2018-07-03T03:53:55.534Z,59.70
2018-07-03T03:56:23.962Z,59.96
2018-07-03T03:58:52.434Z,60.09
2018-07-03T04:01:20.881Z,60.45
2018-07-03T04:03:49.410Z,60.17
2018-07-03T04:06:17.862Z,60.35
2018-07-03T04:08:46.360Z,60.72
2018-07-03T04:11:18.131Z,60.80
2018-07-03T04:17:07.892Z,60.20
2018-07-03T04:19:36.349Z,60.90
2018-07-03T04:22:05.047Z,60.45
2018-07-03T04:24:33.583Z,60.05
2018-07-03T04:27:02.085Z,57.95
2018-07-03T04:29:30.548Z,56.08
2018-07-03T04:31:58.993Z,54.17
2018-07-03T04:34:27.488Z,52.83
2018-07-03T04:36:57.001Z,52.59
2018-07-03T04:39:25.496Z,51.78
2018-07-03T04:41:53.978Z,51.70
2018-07-03T04:44:22.576Z,52.70
2018-07-03T04:46:52.006Z,53.92
2018-07-03T04:49:20.447Z,55.24
2018-07-03T04:51:48.928Z,55.40
2018-07-03T04:54:17.416Z,55.89
2018-07-03T04:56:46.976Z,56.29
2018-07-03T04:59:15.493Z,56.26
2018-07-03T05:01:44.009Z,56.36
2018-07-03T05:04:12.581Z,56.55
2018-07-03T05:06:41.116Z,56.70
2018-07-03T05:09:10.989Z,56.33
2018-07-03T05:11:39.579Z,56.57
2018-07-03T05:14:08.560Z,56.61
2018-07-03T05:16:38.377Z,56.69
2018-07-03T05:19:06.935Z,56.56
2018-07-03T05:21:35.377Z,56.48
2018-07-03T05:24:03.813Z,56.75
2018-07-03T05:26:32.361Z,56.50
2018-07-03T05:29:00.873Z,56.30
2018-07-03T05:31:29.408Z,56.49
2018-07-03T05:33:59.774Z,56.79
2018-07-03T05:36:28.284Z,56.84
2018-07-03T05:38:56.753Z,56.58
2018-07-03T05:41:35.771Z,56.40
2018-07-03T05:44:04.452Z,55.95
2018-07-03T05:46:32.872Z,55.86
2018-07-03T05:49:01.297Z,55.25
2018-07-03T05:51:29.810Z,55.85
2018-07-03T05:53:58.324Z,55.50
2018-07-03T05:56:26.936Z,55.55
2018-07-03T05:58:55.536Z,55.19
2018-07-03T06:01:24.032Z,55.03
2018-07-03T06:03:52.556Z,54.91
2018-07-03T06:06:20.994Z,55.12
2018-07-03T06:08:49.473Z,54.39
2018-07-03T06:11:17.947Z,54.19
2018-07-03T06:13:46.446Z,53.88
2018-07-03T06:16:14.922Z,54.05
2018-07-03T06:18:43.381Z,53.89
2018-07-03T06:21:11.807Z,53.96
2018-07-03T06:23:44.267Z,53.13
2018-07-03T06:26:12.761Z,53.44
2018-07-03T06:28:41.287Z,53.37
2018-07-03T06:31:09.723Z,52.67
2018-07-03T06:33:38.246Z,52.11
2018-07-03T06:36:07.019Z,52.00
2018-07-03T06:38:35.452Z,51.56
2018-07-03T06:41:03.956Z,51.08
2018-07-03T06:43:32.514Z,51.30
2018-07-03T06:46:01.028Z,51.58
2018-07-03T06:48:29.492Z,51.37
2018-07-03T06:50:57.973Z,51.77
2018-07-03T06:53:26.550Z,51.20
2018-07-03T06:55:55.027Z,50.23
2018-07-03T06:58:23.726Z,50.18
2018-07-03T07:00:52.238Z,50.55
2018-07-03T07:03:20.693Z,49.38
2018-07-03T07:05:49.191Z,49.37
2018-07-03T07:08:17.749Z,49.05
2018-07-03T07:10:46.249Z,48.07
2018-07-03T07:13:14.763Z,47.74
2018-07-03T07:15:43.761Z,48.00
2018-07-03T07:18:12.303Z,47.71
2018-07-03T07:20:40.988Z,47.47
2018-07-03T07:23:09.580Z,46.74
2018-07-03T07:25:38.150Z,46.35
2018-07-03T07:28:06.640Z,45.91
2018-07-03T07:30:35.115Z,45.72
2018-07-03T07:33:03.757Z,45.03
2018-07-03T07:35:32.287Z,45.17
2018-07-03T07:38:00.766Z,45.10
2018-07-03T07:40:29.336Z,45.21
2018-07-03T07:42:57.882Z,45.48
2018-07-03T07:45:26.462Z,46.50
2018-07-03T07:47:54.967Z,45.46
2018-07-03T07:50:24.035Z,43.41
2018-07-03T07:52:52.563Z,44.25
2018-07-03T07:55:21.019Z,44.16
2018-07-03T07:57:49.519Z,45.20
2018-07-03T08:00:18.030Z,45.29
2018-07-03T08:02:46.449Z,44.51
2018-07-03T08:05:14.991Z,43.49
2018-07-03T08:07:43.464Z,42.24
2018-07-03T08:10:12.041Z,41.71
2018-07-03T08:12:40.525Z,42.25
2018-07-03T08:15:09.120Z,42.92
2018-07-03T08:17:37.698Z,42.82
2018-07-03T08:20:06.307Z,41.64
2018-07-03T08:22:34.799Z,41.93
2018-07-03T08:25:03.513Z,41.39
2018-07-03T08:27:32.037Z,41.49
2018-07-03T08:30:00.515Z,42.42
2018-07-03T08:32:28.964Z,42.51
2018-07-03T08:34:59.648Z,41.06
2018-07-03T08:37:30.221Z,40.04
2018-07-03T08:39:59.496Z,39.56
2018-07-03T08:42:28.546Z,40.36
2018-07-03T08:44:57.809Z,39.77
2018-07-03T08:47:26.425Z,39.32
2018-07-03T08:49:54.873Z,39.62
2018-07-03T08:52:23.341Z,40.20
2018-07-03T08:54:51.790Z,38.77
2018-07-03T08:57:20.385Z,40.29
2018-07-03T08:59:48.948Z,40.49
2018-07-03T09:02:17.452Z,41.29
2018-07-03T09:04:45.948Z,41.29
2018-07-03T09:07:14.650Z,41.67
2018-07-03T09:09:43.175Z,41.80
2018-07-03T09:12:11.685Z,40.69
2018-07-03T09:14:40.145Z,39.91
2018-07-03T09:17:14.106Z,40.63
2018-07-03T09:19:42.960Z,42.36
2018-07-03T09:22:11.532Z,41.03
2018-07-03T09:24:40.209Z,40.49
2018-07-03T09:27:08.902Z,40.25
2018-07-03T09:29:37.401Z,40.60
2018-07-03T09:32:06.222Z,39.14
2018-07-03T09:34:34.683Z,39.93
2018-07-03T09:37:03.818Z,41.06
2018-07-03T09:39:33.655Z,39.24
2018-07-03T09:42:02.938Z,38.38
2018-07-03T09:44:31.924Z,40.03
2018-07-03T09:47:00.843Z,38.79
2018-07-03T09:49:29.793Z,37.16
2018-07-03T09:51:59.043Z,35.54
2018-07-03T09:54:27.729Z,35.36
2018-07-03T09:56:56.298Z,38.09
2018-07-03T09:59:25.846Z,38.10
2018-07-03T10:01:54.501Z,35.38
2018-07-03T10:04:24.841Z,36.31
2018-07-03T10:06:53.486Z,35.25
2018-07-03T10:09:22.686Z,35.06
2018-07-03T10:11:51.168Z,34.13
2018-07-03T10:14:19.615Z,34.98
2018-07-03T10:16:48.139Z,34.79
2018-07-03T10:19:16.681Z,33.70
2018-07-03T10:21:45.214Z,33.24
2018-07-03T10:24:13.788Z,31.29
2018-07-03T10:26:42.328Z,29.47
2018-07-03T10:29:10.770Z,30.63
2018-07-03T10:31:39.269Z,31.43
2018-07-03T10:34:07.741Z,30.69
2018-07-03T10:36:36.212Z,29.91
2018-07-03T10:39:08.229Z,29.03
2018-07-03T10:41:36.787Z,28.20
2018-07-03T10:44:05.290Z,29.18
2018-07-03T10:46:33.881Z,29.34
2018-07-03T10:49:02.316Z,27.80
2018-07-03T10:51:30.871Z,27.13
2018-07-03T10:53:59.402Z,26.73
2018-07-03T10:56:27.969Z,26.55
2018-07-03T10:58:57.467Z,26.20
2018-07-03T11:01:26.026Z,26.20
2018-07-03T11:03:54.589Z,26.91
2018-07-03T11:06:23.109Z,24.73
2018-07-03T11:08:51.612Z,24.46
2018-07-03T11:11:20.148Z,24.83
2018-07-03T11:13:48.710Z,24.61
2018-07-03T11:16:17.216Z,24.83
2018-07-03T11:18:45.710Z,24.61
2018-07-03T11:21:14.183Z,24.51
2018-07-03T11:23:42.807Z,24.32
2018-07-03T11:26:11.254Z,23.90
2018-07-03T11:28:39.962Z,23.57
2018-07-03T11:31:08.620Z,22.06
2018-07-03T11:33:37.088Z,21.05
2018-07-03T11:36:05.624Z,20.99
2018-07-03T11:38:34.096Z,20.38
2018-07-03T11:41:02.741Z,19.39
2018-07-03T11:43:31.233Z,19.42
2018-07-03T11:45:59.733Z,19.21
2018-07-03T11:48:28.325Z,20.18
2018-07-03T11:50:56.877Z,19.77
2018-07-03T11:53:26.193Z,19.18
2018-07-03T11:55:54.808Z,18.97
2018-07-03T11:58:23.645Z,18.64
2018-07-03T12:00:52.306Z,17.73
2018-07-03T12:03:20.813Z,16.75
2018-07-03T12:05:49.659Z,17.41
2018-07-03T12:08:19.025Z,18.91
2018-07-03T12:10:47.936Z,16.68
2018-07-03T12:13:17.193Z,17.00
2018-07-03T12:15:45.806Z,17.02
2018-07-03T12:18:20.026Z,16.83
2018-07-03T12:20:49.413Z,17.15
2018-07-03T12:23:19.016Z,15.06
2018-07-03T12:25:47.529Z,15.33
2018-07-03T12:28:16.092Z,15.72
2018-07-03T12:30:46.484Z,15.46
2018-07-03T12:33:15.006Z,14.60
2018-07-03T12:35:43.546Z,14.84
2018-07-03T12:38:12.204Z,15.37
2018-07-03T12:40:40.753Z,15.77
2018-07-03T12:43:09.472Z,14.32
2018-07-03T12:45:40.465Z,15.68
2018-07-03T12:48:09.835Z,15.85
2018-07-03T12:50:38.932Z,15.32
2018-07-03T12:53:07.920Z,14.07
2018-07-03T12:55:36.980Z,14.09
2018-07-03T12:58:06.468Z,14.00
2018-07-03T13:00:35.437Z,14.17
2018-07-03T13:03:04.566Z,13.60
2018-07-03T13:05:33.305Z,14.14
2018-07-03T13:08:02.618Z,14.56
2018-07-03T13:10:31.632Z,15.15
2018-07-03T13:13:00.585Z,14.33
2018-07-03T13:15:29.347Z,13.62
2018-07-03T13:17:58.518Z,14.08
2018-07-03T13:20:27.747Z,16.00
2018-07-03T13:22:56.956Z,16.18
2018-07-03T13:25:25.472Z,15.22
2018-07-03T13:27:54.423Z,14.90
2018-07-03T13:30:24.137Z,15.36
2018-07-03T13:32:53.329Z,16.44
2018-07-03T13:35:22.380Z,16.14
2018-07-03T13:37:52.250Z,14.39
2018-07-03T13:40:21.622Z,14.39
2018-07-03T13:42:50.378Z,14.66
2018-07-03T13:45:20.447Z,15.36
2018-07-03T13:47:49.297Z,14.22
2018-07-03T13:50:18.321Z,14.70
2018-07-03T13:52:47.591Z,14.31
2018-07-03T13:55:16.382Z,14.79
2018-07-03T13:57:46.311Z,14.49
2018-07-03T14:00:15.313Z,14.94
2018-07-03T14:02:43.844Z,15.98
2018-07-03T14:05:12.390Z,15.54
2018-07-03T14:07:40.835Z,15.73
2018-07-03T14:10:09.305Z,16.21
2018-07-03T14:12:37.863Z,15.49
2018-07-03T14:15:06.657Z,15.47
2018-07-03T14:17:35.099Z,16.17
2018-07-03T14:20:03.710Z,16.29
2018-07-03T14:22:32.130Z,15.49
2018-07-03T14:25:00.846Z,15.84
2018-07-03T14:27:29.283Z,15.35
2018-07-03T14:29:57.899Z,15.18
2018-07-03T14:32:26.338Z,15.51
2018-07-03T14:34:54.875Z,15.56
2018-07-03T14:37:23.346Z,16.16
2018-07-03T17:00:29.040Z,18.40
2018-07-03T17:02:58.077Z,18.89
2018-07-03T17:05:26.557Z,18.83
2018-07-03T17:07:55.106Z,19.83
2018-07-03T17:10:23.600Z,19.64
2018-07-03T17:12:52.110Z,19.91
2018-07-03T17:15:20.592Z,20.82
2018-07-03T17:17:49.086Z,21.69
2018-07-03T17:20:17.518Z,21.04
2018-07-03T17:22:46.022Z,20.89
2018-07-03T17:25:14.595Z,21.17
2018-07-03T17:27:43.027Z,20.78
2018-07-03T17:30:11.587Z,21.30
2018-07-03T17:32:40.368Z,22.08
2018-07-03T17:35:08.966Z,22.24
2018-07-03T17:37:37.533Z,22.74
2018-07-03T17:40:17.317Z,23.59
2018-07-03T17:42:57.105Z,23.13
2018-07-03T17:45:39.216Z,22.09
2018-07-03T17:48:08.823Z,22.97
2018-07-03T17:50:37.392Z,23.22
2018-07-03T17:53:06.196Z,22.91
2018-07-03T17:55:34.809Z,23.18
2018-07-03T17:58:03.392Z,23.01
2018-07-03T18:00:32.170Z,23.29
2018-07-03T18:03:00.922Z,23.67
2018-07-03T18:05:30.325Z,23.45
2018-07-03T18:07:59.232Z,23.96
2018-07-03T18:10:27.930Z,25.14
2018-07-03T18:12:56.490Z,25.00
2018-07-03T18:15:25.037Z,25.44
2018-07-03T18:17:53.551Z,26.06
2018-07-03T18:20:22.133Z,26.49
2018-07-03T18:22:50.581Z,26.62
2018-07-03T18:25:19.200Z,26.86
2018-07-03T18:27:47.696Z,27.01
2018-07-03T18:30:16.178Z,27.75
2018-07-03T18:32:44.766Z,27.71
2018-07-03T18:35:13.202Z,27.98
2018-07-03T18:37:42.099Z,28.00
2018-07-03T18:40:10.613Z,28.59
2018-07-03T18:42:39.175Z,28.95
2018-07-03T18:45:07.798Z,29.79
2018-07-03T18:47:36.287Z,29.85
2018-07-03T18:50:05.359Z,30.26
2018-07-03T18:52:33.860Z,31.95
2018-07-03T18:55:02.326Z,31.99
2018-07-03T18:57:30.964Z,31.17
2018-07-03T18:59:59.513Z,31.06
2018-07-03T19:02:28.076Z,32.88
2018-07-03T19:04:57.094Z,32.58
2018-07-03T19:07:25.632Z,31.94
2018-07-03T19:09:54.133Z,32.13
2018-07-03T19:12:23.274Z,32.53
2018-07-03T19:14:51.908Z,33.37
2018-07-03T19:17:20.527Z,33.54
2018-07-03T19:19:50.294Z,35.80
2018-07-03T19:22:18.894Z,37.13
2018-07-03T19:24:47.441Z,38.69
2018-07-03T19:27:15.981Z,40.31
2018-07-03T19:29:44.541Z,40.33
2018-07-03T19:32:13.121Z,40.71
2018-07-03T19:34:41.604Z,42.13
2018-07-03T19:37:10.091Z,42.88
2018-07-03T19:39:38.773Z,43.29
2018-07-03T19:42:07.396Z,44.69
2018-07-03T19:44:37.044Z,44.77
2018-07-03T19:47:05.570Z,44.66
2018-07-03T19:49:34.142Z,43.98
2018-07-03T19:52:02.731Z,45.19
2018-07-03T19:54:31.329Z,45.42
2018-07-03T19:56:59.913Z,46.14
2018-07-03T19:59:28.460Z,47.01
2018-07-03T20:01:56.921Z,45.77
2018-07-03T20:04:25.449Z,46.12
2018-07-03T20:06:54.248Z,47.24
2018-07-03T20:09:22.807Z,48.61
2018-07-03T20:11:51.442Z,49.13
2018-07-03T20:14:19.913Z,49.15
2018-07-03T20:16:48.461Z,49.49
2018-07-03T20:19:17.144Z,48.93
2018-07-03T20:21:46.958Z,48.14
2018-07-03T20:24:16.258Z,47.49
2018-07-03T20:26:44.925Z,46.56
2018-07-03T20:29:14.268Z,46.24
2018-07-03T20:31:43.230Z,48.00
2018-07-03T20:34:12.281Z,49.82
2018-07-03T20:36:41.338Z,50.01
2018-07-03T20:39:10.939Z,50.40
2018-07-03T20:41:39.775Z,50.73
2018-07-03T20:44:08.302Z,50.45
2018-07-03T20:46:36.807Z,50.27
2018-07-03T20:49:05.463Z,50.68
2018-07-03T20:51:34.011Z,49.69
2018-07-03T20:54:02.734Z,50.87
2018-07-03T20:56:31.418Z,51.72
2018-07-03T20:59:00.334Z,51.55
2018-07-03T21:01:28.941Z,51.28
2018-07-03T21:03:57.534Z,52.54
2018-07-03T21:06:26.197Z,51.45
2018-07-03T21:08:54.654Z,50.94
2018-07-03T21:13:50.704Z,52.64
2018-07-03T21:16:19.288Z,53.02
2018-07-03T21:18:47.875Z,53.70
2018-07-03T21:21:16.517Z,53.17
2018-07-03T21:23:45.099Z,50.73
2018-07-03T21:26:14.147Z,48.32
2018-07-03T21:28:42.743Z,47.59
2018-07-03T21:31:11.488Z,46.62
2018-07-03T21:33:40.364Z,46.17
2018-07-03T21:36:08.812Z,45.88
2018-07-03T21:38:37.327Z,45.47
2018-07-03T21:41:05.889Z,45.43
2018-07-03T21:43:34.481Z,46.58
2018-07-03T21:46:03.123Z,45.97
2018-07-03T21:48:31.690Z,45.65
2018-07-03T21:51:00.211Z,45.54
2018-07-03T21:53:28.796Z,45.66
2018-07-03T21:55:57.240Z,45.51
2018-07-03T21:58:26.032Z,45.80
2018-07-03T22:00:55.240Z,45.70
2018-07-03T22:03:23.695Z,45.73
2018-07-03T22:05:52.314Z,46.08
2018-07-03T22:08:20.855Z,46.09
2018-07-03T22:10:49.357Z,46.90
2018-07-03T22:13:17.958Z,46.85
2018-07-03T22:15:46.417Z,47.05
2018-07-03T22:18:15.012Z,47.56
2018-07-03T22:20:44.034Z,47.42
2018-07-03T22:23:13.125Z,47.13
2018-07-03T22:25:42.780Z,47.66
2018-07-03T22:28:12.208Z,47.63
2018-07-03T22:30:41.436Z,47.71
2018-07-03T22:33:10.597Z,48.25
2018-07-03T22:35:39.693Z,48.42
2018-07-03T22:38:08.954Z,48.23
2018-07-03T22:40:38.077Z,48.54
2018-07-03T22:43:14.286Z,49.01
2018-07-03T22:45:43.340Z,48.65
2018-07-03T22:48:12.557Z,49.08
2018-07-03T22:50:41.651Z,49.31
2018-07-03T22:53:10.803Z,49.46
2018-07-03T22:55:40.143Z,49.58
2018-07-03T22:58:09.165Z,49.74
2018-07-03T23:00:38.371Z,49.82
2018-07-03T23:03:07.954Z,49.91
2018-07-03T23:05:42.851Z,49.92
2018-07-03T23:08:12.300Z,50.08
2018-07-03T23:10:42.014Z,50.48
2018-07-03T23:13:10.884Z,50.71
2018-07-03T23:15:40.135Z,50.79
2018-07-03T23:18:09.198Z,50.80
2018-07-03T23:20:38.445Z,50.82
2018-07-03T23:23:07.828Z,51.07
2018-07-03T23:25:36.669Z,51.22
2018-07-03T23:28:05.942Z,51.62
2018-07-03T23:30:35.040Z,51.88
2018-07-03T23:33:04.073Z,52.00
2018-07-03T23:35:33.539Z,52.14
2018-07-03T23:38:02.822Z,51.62
2018-07-03T23:40:32.231Z,51.78
2018-07-03T23:43:01.377Z,52.34
2018-07-03T23:45:35.327Z,52.28
2018-07-03T23:48:15.343Z,52.42
2018-07-03T23:50:55.564Z,52.78
2018-07-03T23:53:35.852Z,53.15
2018-07-03T23:56:16.249Z,52.58
2018-07-03T23:58:56.361Z,52.76
